F/V Ville Croisic 5 — FHZY — position and weather

sailwx.info

Track history (hours):
 
Tides and Currents Weather Stations Pressure Air Temp Water Temp Dewpoint Dewpoint Depression Visibility Wind Speed Wind Dir Waves Ship Positions

F/V Ville Croisic 5

Last reported at 2017-Nov-19 07:46 UTC. Time now 2017-Nov-22 15:05 UTC.
Position N 46°19' W 002°43'.

Length 21 m.

Type: Fishing. MMSI: 228920000.

Date/timePositionNaut miles runAvg speedWind from/ knotsBaromVisibWave heightAir tempDewpointWater temp
2017-Nov-19 07:46N 46°19' W 002°43'4 3.5
2017-Nov-19 06:41N 46°22' W 002°44'1 3.6
2017-Nov-19 06:19N 46°24' W 002°45'1 3.6
2017-Nov-19 06:00N 46°25' W 002°46'3 3.8
2017-Nov-19 05:11N 46°28' W 002°46'1 3.7
2017-Nov-19 04:59N 46°28' W 002°47'3 3.8
2017-Nov-19 04:06N 46°31' W 002°49'2 3.7
2017-Nov-19 03:39N 46°33' W 002°50'1 3.7
2017-Nov-19 03:26N 46°33' W 002°51'3 3.8
2017-Nov-19 02:43N 46°36' W 002°52'5 3.6
2017-Nov-19 01:26N 46°40' W 002°56'1 2.9
2017-Nov-19 00:55N 46°41' W 002°57'2 3.4
2017-Nov-19 00:27N 46°42' W 002°58'2 3.6
2017-Nov-19 00:00N 46°43' W 002°60'2 3.8
2017-Nov-18 23:22N 46°44' W 003°03'1 3.6
2017-Nov-18 23:00N 46°43' W 003°04'6 3.3
2017-Nov-18 21:10N 46°39' W 003°11'1 3.6
2017-Nov-18 20:52N 46°38' W 003°10'5 1.6
2017-Nov-18 17:47N 46°33' W 003°08'2 3.7
2017-Nov-18 17:23N 46°34' W 003°09'3 3.6
2017-Nov-18 16:38N 46°37' W 003°09'0 3.7
2017-Nov-18 16:30N 46°38' W 003°10'2 3.2
2017-Nov-18 15:57N 46°39' W 003°11'6 3.4
2017-Nov-18 14:17N 46°34' W 003°08'5 3.0
2017-Nov-18 12:33N 46°29' W 003°05'4 3.0
2017-Nov-18 11:17N 46°26' W 003°02'7 3.0
2017-Nov-18 08:48N 46°33' W 003°06'6 3.6
2017-Nov-18 07:14N 46°39' W 003°05'8 5.0
2017-Nov-18 05:35N 46°47' W 003°01'110.2
2017-Nov-18 05:30N 46°47' W 003°01'510.5
2017-Nov-18 05:00N 46°52' W 002°57'510.1
2017-Nov-18 04:30N 46°56' W 002°53'8 9.9
2017-Nov-18 03:43N 47°03' W 002°48'4 9.9
2017-Nov-18 03:18N 47°06' W 002°44'410.0
2017-Nov-18 02:55N 47°09' W 002°41'6 9.9
2017-Nov-18 02:22N 47°14' W 002°37'3 9.7
2017-Nov-18 02:00N 47°17' W 002°35'3 6.2
2017-Nov-18 01:30N 47°18' W 002°31'0 0.0
2017-Nov-18 00:59N 47°18' W 002°31'0 0.0
2017-Nov-18 00:29N 47°18' W 002°31'0 0.6
2017-Nov-18 00:00N 47°18' W 002°31'4 7.3
2017-Nov-17 23:30N 47°17' W 002°36'510.4
2017-Nov-17 23:01N 47°13' W 002°41'37 3.1
2017-Nov-17 10:58N 46°55' W 003°29'2 3.3
2017-Nov-17 10:25N 46°53' W 003°31'1 3.2
2017-Nov-17 09:59N 46°53' W 003°33'2 3.3
2017-Nov-17 09:29N 46°54' W 003°33'2 3.0
2017-Nov-17 08:58N 46°56' W 003°32'2 3.4
2017-Nov-17 08:27N 46°57' W 003°30'1 2.3
2017-Nov-17 07:54N 46°55' W 003°29'6 3.2
2017-Nov-17 06:05N 46°50' W 003°26'1 3.2
2017-Nov-17 05:53N 46°50' W 003°25'4 2.7
2017-Nov-17 04:20N 46°47' W 003°21'2 3.3
2017-Nov-17 03:45N 46°45' W 003°20'2 3.2
2017-Nov-17 03:15N 46°43' W 003°19'1 3.2
2017-Nov-17 02:58N 46°43' W 003°18'4 3.3
2017-Nov-17 01:41N 46°40' W 003°14'1 4.2
2017-Nov-17 01:30N 46°40' W 003°13'2 2.7
2017-Nov-17 00:54N 46°39' W 003°11'3 3.4
2017-Nov-17 00:07N 46°36' W 003°10'2 3.5
2017-Nov-16 23:31N 46°34' W 003°09'0 3.6
2017-Nov-16 23:28N 46°34' W 003°09'2 3.2
2017-Nov-16 22:54N 46°33' W 003°06'1 2.9
2017-Nov-16 22:30N 46°34' W 003°05'4 3.4
2017-Nov-16 21:19N 46°38' W 003°04'1 2.9
2017-Nov-16 20:57N 46°39' W 003°05'2 3.5
2017-Nov-16 20:19N 46°41' W 003°05'1 3.4
2017-Nov-16 19:55N 46°42' W 003°07'1 3.2
2017-Nov-16 19:30N 46°43' W 003°08'2 3.5
2017-Nov-16 18:58N 46°44' W 003°09'2 3.3
2017-Nov-16 18:16N 46°47' W 003°10'1 3.6
2017-Nov-16 17:57N 46°48' W 003°11'2 4.2
2017-Nov-16 17:30N 46°49' W 003°12'1 2.5
2017-Nov-16 17:00N 46°50' W 003°13'1 2.0
2017-Nov-16 16:27N 46°49' W 003°12'2 3.2
2017-Nov-16 15:48N 46°48' W 003°10'2 3.1
2017-Nov-16 15:18N 46°48' W 003°08'1 3.5
2017-Nov-16 14:56N 46°47' W 003°06'2 3.4
2017-Nov-16 14:26N 46°46' W 003°05'1 2.7
2017-Nov-16 14:00N 46°45' W 003°05'2 3.3
2017-Nov-16 13:17N 46°45' W 003°08'1 3.7
2017-Nov-16 13:00N 46°46' W 003°09'2 2.1
2017-Nov-16 11:52N 46°47' W 003°06'2 3.5
2017-Nov-16 11:13N 46°45' W 003°06'1 1.1
2017-Nov-16 10:44N 46°44' W 003°06'1 3.4
2017-Nov-16 10:30N 46°45' W 003°05'2 3.3
2017-Nov-16 09:59N 46°45' W 003°03'2 3.1
2017-Nov-16 09:30N 46°46' W 003°01'1 2.3
2017-Nov-16 09:00N 46°47' W 003°02'2 2.9
2017-Nov-16 08:29N 46°47' W 003°04'2 3.5
2017-Nov-16 08:00N 46°48' W 003°06'2 3.3
2017-Nov-16 07:30N 46°48' W 003°09'2 3.2
2017-Nov-16 07:00N 46°49' W 003°11'2 3.0
2017-Nov-16 06:19N 46°50' W 003°13'2 3.1
2017-Nov-16 05:49N 46°49' W 003°16'1 3.5
2017-Nov-16 05:27N 46°48' W 003°17'2 2.9
2017-Nov-16 04:47N 46°47' W 003°15'1 3.4
2017-Nov-16 04:28N 46°46' W 003°15'2 3.4
2017-Nov-16 03:50N 46°44' W 003°13'1 3.4
2017-Nov-16 03:30N 46°43' W 003°12'6 3.4
2017-Nov-16 01:39N 46°39' W 003°04'1 3.4
2017-Nov-16 01:29N 46°39' W 003°04'2 2.9
2017-Nov-16 00:58N 46°37' W 003°04'2 3.5
2017-Nov-16 00:23N 46°35' W 003°03'2 3.4
2017-Nov-15 23:44N 46°33' W 003°02'3 3.5
2017-Nov-15 22:58N 46°31' W 003°00'2 3.6
2017-Nov-15 22:30N 46°29' W 002°59'2 3.6
2017-Nov-15 22:00N 46°28' W 002°59'2 3.8
2017-Nov-15 21:21N 46°26' W 002°57'5 2.9
2017-Nov-15 19:45N 46°27' W 002°50'1 3.7
2017-Nov-15 19:30N 46°27' W 002°49'3 3.4
2017-Nov-15 18:33N 46°25' W 002°46'10 3.2
2017-Nov-15 15:31N 46°16' W 002°42'10 3.2
2017-Nov-15 12:15N 46°06' W 002°37'4 2.9
2017-Nov-15 10:52N 46°07' W 002°31'1 2.7
2017-Nov-15 10:29N 46°08' W 002°32'1 2.6
2017-Nov-15 09:59N 46°08' W 002°34'1 2.6
2017-Nov-15 09:27N 46°09' W 002°35'2 2.8
2017-Nov-15 08:54N 46°10' W 002°37'2 3.1
2017-Nov-15 08:23N 46°11' W 002°39'1 2.6
2017-Nov-15 08:00N 46°12' W 002°40'2 3.2
2017-Nov-15 07:25N 46°13' W 002°42'1 3.0
2017-Nov-15 07:00N 46°14' W 002°43'2 3.4
2017-Nov-15 06:30N 46°16' W 002°42'2 3.1
2017-Nov-15 05:49N 46°18' W 002°43'2 3.5
2017-Nov-15 05:21N 46°19' W 002°41'1 3.5
2017-Nov-15 04:56N 46°20' W 002°41'2 3.4
2017-Nov-15 04:21N 46°22' W 002°42'8 8.7
2017-Nov-15 03:26N 46°30' W 002°41'1510.1
2017-Nov-15 01:54N 46°46' W 002°40'510.1
2017-Nov-15 01:24N 46°51' W 002°40'710.0
2017-Nov-15 00:43N 46°58' W 002°39'2 9.9
2017-Nov-15 00:30N 46°60' W 002°38'5 9.7
2017-Nov-15 00:00N 47°04' W 002°38'5 9.7
2017-Nov-14 23:30N 47°09' W 002°37'5 9.7
2017-Nov-14 23:00N 47°14' W 002°36'5 9.2
2017-Nov-14 22:29N 47°19' W 002°34'2 4.7
2017-Nov-14 22:00N 47°18' W 002°31'  
2017-Nov-11 15:34N 46°38' W 003°04'0 1.0
2017-Nov-11 15:30N 46°38' W 003°04'2 3.0
2017-Nov-11 14:59N 46°37' W 003°03'1 3.0
2017-Nov-11 14:30N 46°35' W 003°03'37 2.7
2017-Nov-11 01:07N 47°09' W 002°42'1 9.4
2017-Nov-11 01:00N 47°10' W 002°41'5 9.5
2017-Nov-11 00:30N 47°14' W 002°37'5 9.6
2017-Nov-11 00:00N 47°18' W 002°34'2 4.6
2017-Nov-10 23:30N 47°18' W 002°31'1 1.8
2017-Nov-10 23:00N 47°19' W 002°31'4 7.9
2017-Nov-10 22:30N 47°16' W 002°35'5 9.5
2017-Nov-10 22:01N 47°11' W 002°38'33 1.7
2017-Nov-10 02:56N 46°44' W 003°06'  
Track history (hours):
 
Tides and Currents Weather Stations Pressure Air Temp Water Temp Dewpoint Dewpoint Depression Visibility Wind Speed Wind Dir Waves Ship Positions

F/V Ville Croisic 5

Last reported at 2017-Nov-19 07:46 UTC. Time now 2017-Nov-22 15:05 UTC.
Position N 46°19' W 002°43'.

Length 21 m.

Type: Fishing. MMSI: 228920000.

Date/timePositionNaut miles runAvg speedWind from/ knotsBaromVisibWave heightAir tempDewpointWater temp
2017-Nov-19 07:46N 46°19' W 002°43'4 3.5
2017-Nov-19 06:41N 46°22' W 002°44'1 3.6
2017-Nov-19 06:19N 46°24' W 002°45'1 3.6
2017-Nov-19 06:00N 46°25' W 002°46'3 3.8
2017-Nov-19 05:11N 46°28' W 002°46'1 3.7
2017-Nov-19 04:59N 46°28' W 002°47'3 3.8
2017-Nov-19 04:06N 46°31' W 002°49'2 3.7
2017-Nov-19 03:39N 46°33' W 002°50'1 3.7
2017-Nov-19 03:26N 46°33' W 002°51'3 3.8
2017-Nov-19 02:43N 46°36' W 002°52'5 3.6
2017-Nov-19 01:26N 46°40' W 002°56'1 2.9
2017-Nov-19 00:55N 46°41' W 002°57'2 3.4
2017-Nov-19 00:27N 46°42' W 002°58'2 3.6
2017-Nov-19 00:00N 46°43' W 002°60'2 3.8
2017-Nov-18 23:22N 46°44' W 003°03'1 3.6
2017-Nov-18 23:00N 46°43' W 003°04'6 3.3
2017-Nov-18 21:10N 46°39' W 003°11'1 3.6
2017-Nov-18 20:52N 46°38' W 003°10'5 1.6
2017-Nov-18 17:47N 46°33' W 003°08'2 3.7
2017-Nov-18 17:23N 46°34' W 003°09'3 3.6
2017-Nov-18 16:38N 46°37' W 003°09'0 3.7
2017-Nov-18 16:30N 46°38' W 003°10'2 3.2
2017-Nov-18 15:57N 46°39' W 003°11'6 3.4
2017-Nov-18 14:17N 46°34' W 003°08'5 3.0
2017-Nov-18 12:33N 46°29' W 003°05'4 3.0
2017-Nov-18 11:17N 46°26' W 003°02'7 3.0
2017-Nov-18 08:48N 46°33' W 003°06'6 3.6
2017-Nov-18 07:14N 46°39' W 003°05'8 5.0
2017-Nov-18 05:35N 46°47' W 003°01'110.2
2017-Nov-18 05:30N 46°47' W 003°01'510.5
2017-Nov-18 05:00N 46°52' W 002°57'510.1
2017-Nov-18 04:30N 46°56' W 002°53'8 9.9
2017-Nov-18 03:43N 47°03' W 002°48'4 9.9
2017-Nov-18 03:18N 47°06' W 002°44'410.0
2017-Nov-18 02:55N 47°09' W 002°41'6 9.9
2017-Nov-18 02:22N 47°14' W 002°37'3 9.7
2017-Nov-18 02:00N 47°17' W 002°35'3 6.2
2017-Nov-18 01:30N 47°18' W 002°31'0 0.0
2017-Nov-18 00:59N 47°18' W 002°31'0 0.0
2017-Nov-18 00:29N 47°18' W 002°31'0 0.6
2017-Nov-18 00:00N 47°18' W 002°31'4 7.3
2017-Nov-17 23:30N 47°17' W 002°36'510.4
2017-Nov-17 23:01N 47°13' W 002°41'37 3.1
2017-Nov-17 10:58N 46°55' W 003°29'2 3.3
2017-Nov-17 10:25N 46°53' W 003°31'1 3.2
2017-Nov-17 09:59N 46°53' W 003°33'2 3.3
2017-Nov-17 09:29N 46°54' W 003°33'2 3.0
2017-Nov-17 08:58N 46°56' W 003°32'2 3.4
2017-Nov-17 08:27N 46°57' W 003°30'1 2.3
2017-Nov-17 07:54N 46°55' W 003°29'6 3.2
2017-Nov-17 06:05N 46°50' W 003°26'1 3.2
2017-Nov-17 05:53N 46°50' W 003°25'4 2.7
2017-Nov-17 04:20N 46°47' W 003°21'2 3.3
2017-Nov-17 03:45N 46°45' W 003°20'2 3.2
2017-Nov-17 03:15N 46°43' W 003°19'1 3.2
2017-Nov-17 02:58N 46°43' W 003°18'4 3.3
2017-Nov-17 01:41N 46°40' W 003°14'1 4.2
2017-Nov-17 01:30N 46°40' W 003°13'2 2.7
2017-Nov-17 00:54N 46°39' W 003°11'3 3.4
2017-Nov-17 00:07N 46°36' W 003°10'2 3.5
2017-Nov-16 23:31N 46°34' W 003°09'0 3.6
2017-Nov-16 23:28N 46°34' W 003°09'2 3.2
2017-Nov-16 22:54N 46°33' W 003°06'1 2.9
2017-Nov-16 22:30N 46°34' W 003°05'4 3.4
2017-Nov-16 21:19N 46°38' W 003°04'1 2.9
2017-Nov-16 20:57N 46°39' W 003°05'2 3.5
2017-Nov-16 20:19N 46°41' W 003°05'1 3.4
2017-Nov-16 19:55N 46°42' W 003°07'1 3.2
2017-Nov-16 19:30N 46°43' W 003°08'2 3.5
2017-Nov-16 18:58N 46°44' W 003°09'2 3.3
2017-Nov-16 18:16N 46°47' W 003°10'1 3.6
2017-Nov-16 17:57N 46°48' W 003°11'2 4.2
2017-Nov-16 17:30N 46°49' W 003°12'1 2.5
2017-Nov-16 17:00N 46°50' W 003°13'1 2.0
2017-Nov-16 16:27N 46°49' W 003°12'2 3.2
2017-Nov-16 15:48N 46°48' W 003°10'2 3.1
2017-Nov-16 15:18N 46°48' W 003°08'1 3.5
2017-Nov-16 14:56N 46°47' W 003°06'2 3.4
2017-Nov-16 14:26N 46°46' W 003°05'1 2.7
2017-Nov-16 14:00N 46°45' W 003°05'2 3.3
2017-Nov-16 13:17N 46°45' W 003°08'1 3.7
2017-Nov-16 13:00N 46°46' W 003°09'2 2.1
2017-Nov-16 11:52N 46°47' W 003°06'2 3.5
2017-Nov-16 11:13N 46°45' W 003°06'1 1.1
2017-Nov-16 10:44N 46°44' W 003°06'1 3.4
2017-Nov-16 10:30N 46°45' W 003°05'2 3.3
2017-Nov-16 09:59N 46°45' W 003°03'2 3.1
2017-Nov-16 09:30N 46°46' W 003°01'1 2.3
2017-Nov-16 09:00N 46°47' W 003°02'2 2.9
2017-Nov-16 08:29N 46°47' W 003°04'2 3.5
2017-Nov-16 08:00N 46°48' W 003°06'2 3.3
2017-Nov-16 07:30N 46°48' W 003°09'2 3.2
2017-Nov-16 07:00N 46°49' W 003°11'2 3.0
2017-Nov-16 06:19N 46°50' W 003°13'2 3.1
2017-Nov-16 05:49N 46°49' W 003°16'1 3.5
2017-Nov-16 05:27N 46°48' W 003°17'2 2.9
2017-Nov-16 04:47N 46°47' W 003°15'1 3.4
2017-Nov-16 04:28N 46°46' W 003°15'2 3.4
2017-Nov-16 03:50N 46°44' W 003°13'1 3.4
2017-Nov-16 03:30N 46°43' W 003°12'6 3.4
2017-Nov-16 01:39N 46°39' W 003°04'1 3.4
2017-Nov-16 01:29N 46°39' W 003°04'2 2.9
2017-Nov-16 00:58N 46°37' W 003°04'2 3.5
2017-Nov-16 00:23N 46°35' W 003°03'2 3.4
2017-Nov-15 23:44N 46°33' W 003°02'3 3.5
2017-Nov-15 22:58N 46°31' W 003°00'2 3.6
2017-Nov-15 22:30N 46°29' W 002°59'2 3.6
2017-Nov-15 22:00N 46°28' W 002°59'2 3.8
2017-Nov-15 21:21N 46°26' W 002°57'5 2.9
2017-Nov-15 19:45N 46°27' W 002°50'1 3.7
2017-Nov-15 19:30N 46°27' W 002°49'3 3.4
2017-Nov-15 18:33N 46°25' W 002°46'10 3.2
2017-Nov-15 15:31N 46°16' W 002°42'10 3.2
2017-Nov-15 12:15N 46°06' W 002°37'4 2.9
2017-Nov-15 10:52N 46°07' W 002°31'1 2.7
2017-Nov-15 10:29N 46°08' W 002°32'1 2.6
2017-Nov-15 09:59N 46°08' W 002°34'1 2.6
2017-Nov-15 09:27N 46°09' W 002°35'2 2.8
2017-Nov-15 08:54N 46°10' W 002°37'2 3.1
2017-Nov-15 08:23N 46°11' W 002°39'1 2.6
2017-Nov-15 08:00N 46°12' W 002°40'2 3.2
2017-Nov-15 07:25N 46°13' W 002°42'1 3.0
2017-Nov-15 07:00N 46°14' W 002°43'2 3.4
2017-Nov-15 06:30N 46°16' W 002°42'2 3.1
2017-Nov-15 05:49N 46°18' W 002°43'2 3.5
2017-Nov-15 05:21N 46°19' W 002°41'1 3.5
2017-Nov-15 04:56N 46°20' W 002°41'2 3.4
2017-Nov-15 04:21N 46°22' W 002°42'8 8.7
2017-Nov-15 03:26N 46°30' W 002°41'1510.1
2017-Nov-15 01:54N 46°46' W 002°40'510.1
2017-Nov-15 01:24N 46°51' W 002°40'710.0
2017-Nov-15 00:43N 46°58' W 002°39'2 9.9
2017-Nov-15 00:30N 46°60' W 002°38'5 9.7
2017-Nov-15 00:00N 47°04' W 002°38'5 9.7
2017-Nov-14 23:30N 47°09' W 002°37'5 9.7
2017-Nov-14 23:00N 47°14' W 002°36'5 9.2
2017-Nov-14 22:29N 47°19' W 002°34'2 4.7
2017-Nov-14 22:00N 47°18' W 002°31'  
2017-Nov-11 15:34N 46°38' W 003°04'0 1.0
2017-Nov-11 15:30N 46°38' W 003°04'2 3.0
2017-Nov-11 14:59N 46°37' W 003°03'1 3.0
2017-Nov-11 14:30N 46°35' W 003°03'37 2.7
2017-Nov-11 01:07N 47°09' W 002°42'1 9.4
2017-Nov-11 01:00N 47°10' W 002°41'5 9.5
2017-Nov-11 00:30N 47°14' W 002°37'5 9.6
2017-Nov-11 00:00N 47°18' W 002°34'2 4.6
2017-Nov-10 23:30N 47°18' W 002°31'1 1.8
2017-Nov-10 23:00N 47°19' W 002°31'4 7.9
2017-Nov-10 22:30N 47°16' W 002°35'5 9.5
2017-Nov-10 22:01N 47°11' W 002°38'33 1.7
2017-Nov-10 02:56N 46°44' W 003°06'  

Dump ship's entire track history